createdAt,value
2023-01-23T00:00:28.155Z,75.60
2023-01-23T00:02:58.664Z,75.63
2023-01-23T00:05:28.680Z,76.03
2023-01-23T00:07:58.099Z,75.85
2023-01-23T00:10:27.703Z,76.29
2023-01-23T00:12:58.921Z,76.43
2023-01-23T00:15:28.538Z,76.54
2023-01-23T00:17:58.189Z,75.78
2023-01-23T00:20:27.860Z,76.17
2023-01-23T00:22:57.208Z,75.69
2023-01-23T00:25:27.274Z,76.25
2023-01-23T00:27:57.197Z,76.17
2023-01-23T00:30:27.260Z,76.14
2023-01-23T00:32:57.138Z,76.25
2023-01-23T00:35:28.556Z,75.63
2023-01-23T00:37:59.143Z,75.94
2023-01-23T00:40:28.737Z,75.81
2023-01-23T00:42:58.125Z,76.66
2023-01-23T00:45:27.591Z,76.34
2023-01-23T00:47:57.015Z,76.83
2023-01-23T00:50:26.424Z,76.71
2023-01-23T00:52:55.782Z,77.09
2023-01-23T00:55:25.895Z,77.00
2023-01-23T00:57:55.616Z,76.61
2023-01-23T01:00:26.172Z,76.54
2023-01-23T01:02:56.691Z,76.92
2023-01-23T01:05:27.233Z,77.49
2023-01-23T01:07:56.923Z,77.17
2023-01-23T01:10:31.485Z,78.44
2023-01-23T01:13:03.843Z,77.71
2023-01-23T01:15:34.671Z,77.72
2023-01-23T01:18:05.348Z,78.46
2023-01-23T01:20:35.233Z,77.87
2023-01-23T01:23:04.980Z,77.70
2023-01-23T01:25:34.785Z,77.75
2023-01-23T01:28:04.656Z,78.06
2023-01-23T01:30:35.279Z,78.01
2023-01-23T01:33:05.969Z,77.85
2023-01-23T01:35:36.232Z,77.54
2023-01-23T01:38:05.981Z,77.88
2023-01-23T01:40:37.420Z,77.82
2023-01-23T01:43:10.726Z,78.08
2023-01-23T01:46:17.182Z,78.60
2023-01-23T01:49:27.424Z,78.38
2023-01-23T01:51:59.962Z,79.32
2023-01-23T01:54:39.003Z,78.79
2023-01-23T01:57:11.935Z,78.98
2023-01-23T01:59:49.404Z,79.10
2023-01-23T02:02:28.182Z,79.22
2023-01-23T02:05:06.089Z,79.77
2023-01-23T02:07:42.137Z,79.03
2023-01-23T02:10:13.931Z,79.03
2023-01-23T02:12:49.764Z,78.92
2023-01-23T02:15:21.184Z,79.26
2023-01-23T02:17:55.960Z,78.82
2023-01-23T02:20:30.619Z,79.27
2023-01-23T02:23:43.369Z,79.11
2023-01-23T02:26:20.806Z,79.07
2023-01-23T02:28:54.434Z,79.19
2023-01-23T02:31:28.600Z,79.36
2023-01-23T02:34:01.699Z,79.34
2023-01-23T02:36:34.897Z,79.42
2023-01-23T02:39:11.260Z,79.75
2023-01-23T02:41:43.815Z,79.72
2023-01-23T02:44:30.166Z,79.60
2023-01-23T02:47:09.045Z,79.92
2023-01-23T02:49:39.367Z,79.61
2023-01-23T02:52:11.015Z,80.17
2023-01-23T02:54:41.895Z,79.89
2023-01-23T02:57:12.584Z,79.70
2023-01-23T03:00:00.388Z,79.89
2023-01-23T03:02:30.854Z,79.72
2023-01-23T03:05:00.390Z,79.62
2023-01-23T03:07:30.694Z,79.69
2023-01-23T03:10:00.239Z,79.56
2023-01-23T03:12:29.871Z,79.44
2023-01-23T03:15:00.940Z,79.73
2023-01-23T03:17:31.488Z,79.64
2023-01-23T03:20:03.145Z,79.58
2023-01-23T03:22:33.133Z,79.32
2023-01-23T03:25:02.743Z,79.07
2023-01-23T03:27:33.449Z,78.88
2023-01-23T03:30:15.268Z,78.70
2023-01-23T03:32:46.470Z,77.87
2023-01-23T03:35:18.299Z,77.69
2023-01-23T03:37:52.023Z,77.64
2023-01-23T03:40:43.634Z,77.18
2023-01-23T03:43:17.424Z,77.70
2023-01-23T03:45:53.099Z,77.54
2023-01-23T03:48:24.111Z,76.82
2023-01-23T03:50:54.756Z,75.75
2023-01-23T03:53:26.296Z,75.88
2023-01-23T03:55:56.237Z,75.66
2023-01-23T03:58:27.240Z,76.45
2023-01-23T04:01:00.159Z,75.93
2023-01-23T04:03:31.157Z,76.09
2023-01-23T04:06:01.853Z,75.97
2023-01-23T04:08:31.770Z,75.35
2023-01-23T04:11:09.923Z,76.13
2023-01-23T04:13:40.679Z,76.22
2023-01-23T04:16:10.670Z,75.62
2023-01-23T04:18:40.460Z,76.21
2023-01-23T04:21:10.960Z,76.07
2023-01-23T04:23:41.636Z,76.34
2023-01-23T04:26:11.934Z,76.07
2023-01-23T04:28:42.628Z,77.20
2023-01-23T04:31:14.203Z,76.89
2023-01-23T04:33:44.201Z,76.55
2023-01-23T04:36:15.187Z,76.06
2023-01-23T04:38:45.540Z,75.65
2023-01-23T04:41:30.325Z,75.40
2023-01-23T04:44:23.584Z,75.09
2023-01-23T04:47:22.135Z,74.51
2023-01-23T04:49:52.728Z,74.09
2023-01-23T04:52:23.075Z,74.24
2023-01-23T04:55:00.120Z,73.94
2023-01-23T04:57:30.249Z,73.97
2023-01-23T05:00:10.498Z,73.86
2023-01-23T05:02:43.346Z,74.57
2023-01-23T05:05:13.765Z,73.52
2023-01-23T05:07:43.962Z,73.38
2023-01-23T05:10:18.197Z,72.90
2023-01-23T05:12:49.157Z,72.63
2023-01-23T05:15:20.474Z,73.16
2023-01-23T05:38:03.233Z,67.97
2023-01-23T05:40:37.572Z,67.93
2023-01-23T05:43:26.994Z,68.03
2023-01-23T05:46:14.553Z,67.89
2023-01-23T05:48:56.027Z,66.76
2023-01-23T05:51:32.400Z,67.34
2023-01-23T05:54:04.104Z,66.37
2023-01-23T05:56:35.714Z,66.08
2023-01-23T05:59:31.141Z,65.56
2023-01-23T06:02:33.923Z,65.30
2023-01-23T06:05:21.496Z,64.99
2023-01-23T06:08:04.940Z,65.79
2023-01-23T06:10:34.695Z,65.47
2023-01-23T06:13:05.821Z,63.83
2023-01-23T06:15:35.996Z,64.00
2023-01-23T06:18:11.439Z,63.79
2023-01-23T06:20:40.860Z,63.14
2023-01-23T06:23:10.330Z,63.42
2023-01-23T06:25:40.512Z,62.78
2023-01-23T06:28:12.446Z,63.36
2023-01-23T06:30:42.108Z,62.54
2023-01-23T06:33:23.434Z,63.13
2023-01-23T06:35:59.666Z,63.35
2023-01-23T06:38:30.353Z,63.16
2023-01-23T06:41:01.599Z,63.57
2023-01-23T06:43:35.316Z,63.16
2023-01-23T06:46:05.796Z,63.28
2023-01-23T06:48:35.029Z,63.87
2023-01-23T06:51:05.106Z,64.22
2023-01-23T06:53:35.311Z,62.77
2023-01-23T06:56:09.024Z,63.33
2023-01-23T06:58:42.847Z,63.25
2023-01-23T07:01:20.420Z,63.10
2023-01-23T07:04:12.793Z,62.52
2023-01-23T07:06:44.166Z,62.56
2023-01-23T07:09:16.293Z,61.12
2023-01-23T07:11:52.697Z,62.25
2023-01-23T07:14:22.533Z,61.84
2023-01-23T07:16:56.730Z,61.94
2023-01-23T07:19:27.944Z,61.49
2023-01-23T07:21:58.546Z,61.16
2023-01-23T07:24:31.066Z,61.73
2023-01-23T07:27:00.615Z,62.46
2023-01-23T07:29:33.069Z,62.34
2023-01-23T07:32:02.308Z,61.74
2023-01-23T07:34:31.025Z,61.39
2023-01-23T07:37:00.771Z,61.28
2023-01-23T07:39:29.906Z,60.57
2023-01-23T07:41:59.531Z,60.38
2023-01-23T07:44:30.818Z,60.05
2023-01-23T07:47:00.507Z,60.67
2023-01-23T07:49:30.063Z,60.35
2023-01-23T07:51:58.937Z,59.96
2023-01-23T07:54:28.350Z,60.41
2023-01-23T07:56:57.959Z,60.81
2023-01-23T07:59:27.711Z,60.99
2023-01-23T08:01:57.124Z,60.37
2023-01-23T08:04:26.371Z,61.21
2023-01-23T08:06:55.803Z,61.33
2023-01-23T08:09:25.550Z,59.78
2023-01-23T08:11:55.114Z,59.66
2023-01-23T08:14:24.885Z,59.09
2023-01-23T08:16:54.977Z,58.88
2023-01-23T08:19:26.489Z,60.08
2023-01-23T08:21:56.019Z,60.12
2023-01-23T08:24:25.259Z,58.91
2023-01-23T08:26:54.625Z,58.05
2023-01-23T08:29:23.995Z,60.00
2023-01-23T08:31:56.120Z,59.55
2023-01-23T08:34:26.177Z,58.16
2023-01-23T08:36:55.490Z,58.56
2023-01-23T08:39:25.740Z,59.53
2023-01-23T08:41:54.835Z,60.09
2023-01-23T08:44:24.901Z,60.12
2023-01-23T08:46:54.147Z,59.32
2023-01-23T08:49:23.369Z,59.62
2023-01-23T08:51:52.702Z,59.12
2023-01-23T08:54:24.823Z,58.88
2023-01-23T08:56:54.674Z,58.84
2023-01-23T08:59:24.027Z,58.38
2023-01-23T09:01:54.544Z,58.84
2023-01-23T09:04:23.668Z,59.22
2023-01-23T09:06:53.204Z,58.89
2023-01-23T09:09:22.575Z,58.24
2023-01-23T09:11:52.403Z,58.94
2023-01-23T09:14:22.251Z,58.65
2023-01-23T09:16:51.430Z,57.47
2023-01-23T09:19:20.571Z,57.53
2023-01-23T09:21:49.785Z,57.65
2023-01-23T09:24:19.106Z,57.65
2023-01-23T09:26:48.173Z,57.55
2023-01-23T09:29:17.687Z,57.86
2023-01-23T09:31:47.045Z,58.41
2023-01-23T09:34:17.382Z,58.72
2023-01-23T09:36:46.861Z,59.11
2023-01-23T09:39:15.747Z,58.28
2023-01-23T09:41:47.765Z,57.22
2023-01-23T09:44:23.716Z,58.06
2023-01-23T09:47:05.949Z,58.50
2023-01-23T09:49:42.599Z,58.77
2023-01-23T09:52:21.742Z,59.02
2023-01-23T09:55:05.869Z,59.03
2023-01-23T09:57:40.850Z,59.77
2023-01-23T10:00:23.233Z,58.79
2023-01-23T10:02:54.572Z,57.64
2023-01-23T10:05:33.984Z,58.06
2023-01-23T10:08:12.555Z,57.98
2023-01-23T10:11:00.996Z,57.64
2023-01-23T10:14:07.232Z,56.96
2023-01-23T10:16:52.362Z,57.34
2023-01-23T10:19:51.628Z,56.85
2023-01-23T10:22:37.028Z,55.86
2023-01-23T10:25:41.813Z,54.98
2023-01-23T10:28:32.165Z,54.55
2023-01-23T10:31:05.551Z,54.13
2023-01-23T10:33:51.053Z,54.17
2023-01-23T10:36:54.713Z,53.98
2023-01-23T10:39:34.476Z,55.46
2023-01-23T10:42:03.708Z,55.18
2023-01-23T10:44:32.641Z,55.96
2023-01-23T10:47:06.190Z,56.87
2023-01-23T10:49:46.459Z,56.52
2023-01-23T10:52:46.230Z,56.86
2023-01-23T10:55:21.348Z,57.46
2023-01-23T10:57:55.084Z,59.67
2023-01-23T11:00:30.793Z,60.68
2023-01-23T11:03:22.518Z,60.72
2023-01-23T11:06:07.991Z,61.21
2023-01-23T11:08:53.041Z,61.14
2023-01-23T11:11:26.123Z,61.29
2023-01-23T11:14:23.851Z,62.01
2023-01-23T11:17:23.723Z,62.18
2023-01-23T11:19:55.479Z,63.40
2023-01-23T11:22:34.405Z,63.64
2023-01-23T11:38:03.136Z,65.90
2023-01-23T11:40:33.135Z,66.01
2023-01-23T11:43:11.654Z,66.25
2023-01-23T11:45:47.480Z,65.98
2023-01-23T11:48:42.636Z,66.25
2023-01-23T11:51:30.930Z,66.52
2023-01-23T11:54:22.429Z,67.04
2023-01-23T11:56:51.928Z,67.25
2023-01-23T11:59:35.411Z,68.02
2023-01-23T12:02:04.781Z,68.25
2023-01-23T12:04:55.036Z,68.82
2023-01-23T12:07:27.888Z,69.11
2023-01-23T12:09:57.106Z,69.49
2023-01-23T12:12:37.676Z,69.81
2023-01-23T12:15:29.150Z,70.25
2023-01-23T12:18:15.622Z,70.25
2023-01-23T12:21:13.385Z,70.91
2023-01-23T12:23:47.309Z,71.19
2023-01-23T12:26:23.516Z,71.40
2023-01-23T12:29:04.260Z,70.80
2023-01-23T12:31:49.196Z,70.76
2023-01-23T12:34:21.140Z,70.13
2023-01-23T12:37:11.759Z,70.03
2023-01-23T12:39:52.930Z,69.89
2023-01-23T12:42:28.286Z,69.24
2023-01-23T12:45:12.584Z,69.17
2023-01-23T12:48:01.670Z,68.38
2023-01-23T12:50:54.853Z,68.19
2023-01-23T12:53:25.157Z,67.55
2023-01-23T12:56:00.592Z,67.32
2023-01-23T12:58:33.377Z,66.83
2023-01-23T13:01:14.955Z,67.02
2023-01-23T13:04:22.478Z,66.72
2023-01-23T13:07:11.127Z,66.65
2023-01-23T13:09:49.760Z,66.75
2023-01-23T13:12:28.650Z,67.11
2023-01-23T13:15:39.128Z,67.08
2023-01-23T13:18:29.086Z,67.56
2023-01-23T13:21:26.837Z,67.88
2023-01-23T13:24:40.995Z,67.65
2023-01-23T13:27:56.440Z,67.71
2023-01-23T13:30:33.445Z,68.08
2023-01-23T13:33:31.656Z,68.05
2023-01-23T13:36:24.826Z,68.17
2023-01-23T13:39:16.382Z,69.11
2023-01-23T13:41:50.443Z,69.08
2023-01-23T13:44:47.754Z,69.14
2023-01-23T14:22:42.083Z,70.49
2023-01-23T14:25:20.362Z,70.88
2023-01-23T14:27:54.279Z,70.42
2023-01-23T14:30:27.561Z,70.27
2023-01-23T14:32:56.816Z,69.93
2023-01-23T14:35:31.900Z,70.04
2023-01-23T14:38:04.517Z,70.46
2023-01-23T14:40:48.949Z,70.16
2023-01-23T14:43:23.160Z,69.46
2023-01-23T14:46:26.052Z,69.83
2023-01-23T14:48:57.207Z,69.58
2023-01-23T14:51:28.799Z,69.30
2023-01-23T14:54:10.221Z,69.59
2023-01-23T14:56:41.532Z,69.39
2023-01-23T14:59:39.086Z,69.12
2023-01-23T15:02:32.520Z,69.15
2023-01-23T15:05:11.470Z,69.30
2023-01-23T15:07:52.122Z,69.10
2023-01-23T15:10:30.051Z,69.49
2023-01-23T15:13:03.506Z,69.36
2023-01-23T15:15:35.965Z,69.42
2023-01-23T15:18:20.755Z,69.33
2023-01-23T15:21:25.907Z,68.96
2023-01-23T15:24:13.267Z,68.89
2023-01-23T15:26:45.151Z,69.09
2023-01-23T15:29:14.258Z,68.94
2023-01-23T15:31:46.777Z,68.87
2023-01-23T15:34:15.395Z,68.92
2023-01-23T15:37:19.880Z,68.80
2023-01-23T15:39:55.784Z,68.95
2023-01-23T15:42:30.092Z,69.24
2023-01-23T15:45:02.043Z,69.20
2023-01-23T15:47:33.084Z,69.44
2023-01-23T15:50:04.981Z,69.11
2023-01-23T18:19:28.885Z,75.15
2023-01-23T18:21:59.372Z,75.27
2023-01-23T18:24:33.442Z,75.38
2023-01-23T18:27:12.896Z,75.57
2023-01-23T18:30:03.541Z,75.12
2023-01-23T18:33:14.281Z,74.63
2023-01-23T18:36:22.789Z,74.72
2023-01-23T18:39:27.817Z,74.36
2023-01-23T18:42:12.295Z,74.23
2023-01-23T18:44:49.705Z,73.47
2023-01-23T18:47:19.085Z,73.71
2023-01-23T18:49:48.337Z,74.24
2023-01-23T18:52:24.476Z,73.91
2023-01-23T18:54:56.737Z,73.47
2023-01-23T18:57:52.567Z,73.13
2023-01-23T19:00:36.709Z,72.66
2023-01-23T19:03:18.178Z,72.56
2023-01-23T19:05:47.944Z,72.57
2023-01-23T19:08:31.711Z,72.47
2023-01-23T19:11:26.034Z,72.04
2023-01-23T19:13:55.261Z,72.03
2023-01-23T19:16:34.193Z,72.42
2023-01-23T19:19:23.976Z,72.45
2023-01-23T19:21:53.295Z,73.37
2023-01-23T19:24:22.531Z,73.77
2023-01-23T19:26:52.512Z,74.17
2023-01-23T19:29:23.984Z,73.54
2023-01-23T19:32:09.205Z,73.98
2023-01-23T19:34:38.361Z,73.96
2023-01-23T19:37:08.875Z,74.21
2023-01-23T19:39:38.852Z,75.83
2023-01-23T19:42:13.739Z,75.96
2023-01-23T19:44:42.573Z,75.03
2023-01-23T19:47:11.731Z,75.65
2023-01-23T19:49:41.429Z,76.24
2023-01-23T19:52:15.383Z,75.55
2023-01-23T19:54:44.384Z,75.43
2023-01-23T19:57:15.809Z,75.49
2023-01-23T19:59:44.657Z,75.92
2023-01-23T20:02:20.941Z,75.34
2023-01-23T20:04:49.883Z,74.90
2023-01-23T20:07:18.899Z,74.95
2023-01-23T20:09:47.743Z,74.91
2023-01-23T20:12:16.640Z,75.13
2023-01-23T20:14:45.728Z,74.99
2023-01-23T20:17:14.771Z,75.03
2023-01-23T20:19:43.829Z,74.38
2023-01-23T20:22:12.635Z,74.57
2023-01-23T20:24:41.790Z,74.44
2023-01-23T20:27:10.587Z,74.24
2023-01-23T20:29:39.685Z,74.27
2023-01-23T20:32:08.882Z,74.21
2023-01-23T20:34:37.751Z,74.17
2023-01-23T20:37:06.704Z,74.25
2023-01-23T20:39:35.392Z,74.94
2023-01-23T20:42:04.545Z,74.79
2023-01-23T20:44:33.528Z,74.40
2023-01-23T20:47:02.499Z,74.64
2023-01-23T20:49:31.498Z,74.58
2023-01-23T20:52:20.454Z,74.85
2023-01-23T20:54:49.459Z,74.53
2023-01-23T20:57:18.435Z,74.17
2023-01-23T20:59:48.764Z,74.55
2023-01-23T21:02:27.996Z,74.45
2023-01-23T21:04:57.128Z,74.28
2023-01-23T21:07:27.092Z,74.09
2023-01-23T21:09:55.946Z,74.70
2023-01-23T21:12:24.790Z,74.82
2023-01-23T21:14:53.757Z,74.85
2023-01-23T21:17:22.721Z,75.16
2023-01-23T21:19:51.810Z,75.24
2023-01-23T21:22:20.675Z,75.29
2023-01-23T21:24:50.195Z,74.99
2023-01-23T21:27:21.107Z,74.83
2023-01-23T21:29:50.893Z,74.80
2023-01-23T21:32:19.575Z,74.92
2023-01-23T21:34:48.739Z,74.64
2023-01-23T21:37:19.338Z,74.47
2023-01-23T21:39:48.448Z,74.79
2023-01-23T21:42:17.232Z,75.04
2023-01-23T21:44:46.063Z,76.40
2023-01-23T21:47:14.915Z,75.66
2023-01-23T21:49:43.764Z,75.45
2023-01-23T21:52:12.643Z,75.36
2023-01-23T21:54:43.629Z,75.04
2023-01-23T21:57:12.636Z,75.41
2023-01-23T21:59:41.516Z,75.46
2023-01-23T22:02:10.399Z,75.22
2023-01-23T22:04:39.657Z,75.54
2023-01-23T22:07:08.479Z,75.52
2023-01-23T22:09:37.269Z,75.90
2023-01-23T22:12:06.453Z,75.56
2023-01-23T22:14:35.343Z,75.47
2023-01-23T22:17:04.047Z,75.74
2023-01-23T22:19:33.196Z,75.73
2023-01-23T22:22:01.811Z,75.69
2023-01-23T22:24:31.555Z,75.53
2023-01-23T22:27:00.870Z,75.77
2023-01-23T22:29:29.774Z,75.47
2023-01-23T22:31:58.994Z,75.34
2023-01-23T22:34:28.296Z,75.59
2023-01-23T22:36:57.200Z,75.48
2023-01-23T22:39:26.222Z,75.67
2023-01-23T22:41:55.344Z,75.71
2023-01-23T22:44:24.244Z,75.69
2023-01-23T22:46:53.012Z,75.92
2023-01-23T22:49:22.777Z,76.15
2023-01-23T22:51:52.404Z,76.16
2023-01-23T22:54:21.363Z,76.66
2023-01-23T22:56:50.336Z,76.95
2023-01-23T22:59:19.545Z,76.38
2023-01-23T23:01:48.305Z,76.36
2023-01-23T23:04:17.322Z,76.51
2023-01-23T23:06:46.235Z,76.16
2023-01-23T23:09:15.389Z,76.48
2023-01-23T23:11:45.138Z,77.43
2023-01-23T23:14:14.283Z,76.70
2023-01-23T23:16:43.267Z,76.60
2023-01-23T23:19:12.715Z,76.60
2023-01-23T23:21:41.851Z,77.34
2023-01-23T23:24:14.699Z,76.66
2023-01-23T23:26:43.695Z,76.62
2023-01-23T23:29:12.682Z,77.08
2023-01-23T23:31:42.038Z,76.80
2023-01-23T23:34:10.897Z,76.15
2023-01-23T23:36:39.886Z,76.45
2023-01-23T23:39:08.783Z,76.71
2023-01-23T23:41:37.641Z,76.50
2023-01-23T23:44:06.794Z,76.87
2023-01-23T23:46:35.655Z,76.66
2023-01-23T23:49:04.567Z,76.56
2023-01-23T23:51:33.670Z,77.82
2023-01-23T23:54:02.386Z,77.07
2023-01-23T23:56:33.204Z,77.20
2023-01-23T23:59:02.128Z,76.94
